createdAt,value
2022-07-29T00:00:23.995Z,21.43
2022-07-29T00:02:52.013Z,21.41
2022-07-29T00:05:20.005Z,21.41
2022-07-29T00:07:47.971Z,21.40
2022-07-29T00:10:17.207Z,21.39
2022-07-29T00:12:44.991Z,21.37
2022-07-29T00:15:12.763Z,21.36
2022-07-29T00:17:40.587Z,21.18
2022-07-29T00:20:09.719Z,21.35
2022-07-29T00:22:39.944Z,21.32
2022-07-29T00:25:09.762Z,21.28
2022-07-29T00:27:39.071Z,21.25
2022-07-29T00:30:08.509Z,21.34
2022-07-29T00:32:36.522Z,21.34
2022-07-29T00:35:22.127Z,21.35
2022-07-29T00:37:49.895Z,21.35
2022-07-29T00:40:17.729Z,21.35
2022-07-29T00:42:48.462Z,21.35
2022-07-29T00:45:16.815Z,21.25
2022-07-29T00:47:44.916Z,21.13
2022-07-29T00:50:14.229Z,21.31
2022-07-29T00:52:44.290Z,21.30
2022-07-29T00:55:14.272Z,21.30
2022-07-29T00:57:44.572Z,21.28
2022-07-29T01:00:16.578Z,21.26
2022-07-29T01:02:44.568Z,21.20
2022-07-29T01:05:13.837Z,21.24
2022-07-29T01:07:42.159Z,21.08
2022-07-29T01:10:12.092Z,21.19
2022-07-29T01:12:40.289Z,21.17
2022-07-29T01:15:09.939Z,21.15
2022-07-29T01:17:50.381Z,21.12
2022-07-29T01:20:31.655Z,21.08
2022-07-29T01:23:32.643Z,21.02
2022-07-29T01:26:24.310Z,20.97
2022-07-29T01:29:11.261Z,20.89
2022-07-29T01:31:49.165Z,20.88
2022-07-29T01:34:32.187Z,20.85
2022-07-29T01:37:08.678Z,20.84
2022-07-29T01:39:38.131Z,20.84
2022-07-29T01:42:14.745Z,20.83
2022-07-29T01:44:50.404Z,20.84
2022-07-29T01:47:22.424Z,20.83
2022-07-29T01:49:54.952Z,20.82
2022-07-29T01:52:27.835Z,20.80
2022-07-29T01:54:59.339Z,20.79
2022-07-29T01:57:31.244Z,20.78
2022-07-29T02:00:02.879Z,20.77
2022-07-29T02:02:33.836Z,20.62
2022-07-29T02:05:04.254Z,20.73
2022-07-29T02:07:35.116Z,20.71
2022-07-29T02:10:06.003Z,20.70
2022-07-29T02:12:34.600Z,20.57
2022-07-29T02:15:06.579Z,20.67
2022-07-29T02:17:41.385Z,20.66
2022-07-29T02:20:11.241Z,20.65
2022-07-29T02:22:41.231Z,20.61
2022-07-29T02:25:13.779Z,20.63
2022-07-29T02:27:43.748Z,20.62
2022-07-29T02:30:14.701Z,20.59
2022-07-29T02:32:43.991Z,20.60
2022-07-29T02:35:17.162Z,20.59
2022-07-29T02:38:07.618Z,20.58
2022-07-29T02:40:37.313Z,20.56
2022-07-29T02:43:08.612Z,20.45
2022-07-29T02:45:38.332Z,20.44
2022-07-29T02:48:11.993Z,20.50
2022-07-29T02:50:44.952Z,20.53
2022-07-29T02:53:17.732Z,20.53
2022-07-29T02:55:48.553Z,20.50
2022-07-29T02:58:27.236Z,20.50
2022-07-29T03:00:58.844Z,20.48
2022-07-29T03:03:31.652Z,20.46
2022-07-29T03:06:01.940Z,20.45
2022-07-29T03:08:30.316Z,20.44
2022-07-29T03:10:58.653Z,20.44
2022-07-29T03:13:27.990Z,20.42
2022-07-29T03:15:58.621Z,20.41
2022-07-29T03:18:27.147Z,20.39
2022-07-29T03:20:55.207Z,20.25
2022-07-29T03:23:24.867Z,20.35
2022-07-29T03:25:53.219Z,20.35
2022-07-29T03:28:23.573Z,20.33
2022-07-29T03:30:55.435Z,20.33
2022-07-29T03:33:24.597Z,20.31
2022-07-29T03:35:52.321Z,20.25
2022-07-29T03:38:21.029Z,20.28
2022-07-29T03:41:03.157Z,20.26
2022-07-29T03:43:34.823Z,20.24
2022-07-29T03:46:04.237Z,20.21
2022-07-29T03:48:36.893Z,20.19
2022-07-29T03:51:04.907Z,20.16
2022-07-29T03:53:33.267Z,20.15
2022-07-29T03:56:03.748Z,20.13
2022-07-29T03:58:33.699Z,20.13
2022-07-29T04:01:01.963Z,20.11
2022-07-29T04:03:30.092Z,20.10
2022-07-29T04:06:04.539Z,20.08
2022-07-29T04:08:32.276Z,20.04
2022-07-29T04:11:00.008Z,19.90
2022-07-29T04:13:27.789Z,20.01
2022-07-29T04:15:55.642Z,20.00
2022-07-29T04:18:23.722Z,19.98
2022-07-29T04:20:51.552Z,19.97
2022-07-29T04:23:20.791Z,19.97
2022-07-29T04:25:49.576Z,19.84
2022-07-29T04:28:17.305Z,19.97
2022-07-29T04:30:45.214Z,19.95
2022-07-29T04:33:13.037Z,19.96
2022-07-29T04:35:50.006Z,19.95
2022-07-29T04:38:21.513Z,19.94
2022-07-29T04:40:49.762Z,19.95
2022-07-29T04:43:22.539Z,19.95
2022-07-29T04:45:51.286Z,19.94
2022-07-29T04:48:19.121Z,19.93
2022-07-29T04:50:46.865Z,19.92
2022-07-29T04:53:14.615Z,19.91
2022-07-29T04:55:43.883Z,19.92
2022-07-29T04:58:11.690Z,19.91
2022-07-29T05:00:39.656Z,19.89
2022-07-29T05:03:07.596Z,19.88
2022-07-29T05:05:35.443Z,19.87
2022-07-29T05:08:03.222Z,19.85
2022-07-29T05:10:31.220Z,19.86
2022-07-29T05:13:00.382Z,19.83
2022-07-29T05:15:28.264Z,19.83
2022-07-29T05:17:56.135Z,19.79
2022-07-29T05:20:27.382Z,19.81
2022-07-29T05:22:55.336Z,19.80
2022-07-29T05:25:23.483Z,19.79
2022-07-29T05:28:09.934Z,19.77
2022-07-29T05:30:37.763Z,19.75
2022-07-29T05:33:05.649Z,19.73
2022-07-29T05:35:33.417Z,19.73
2022-07-29T05:38:01.284Z,19.71
2022-07-29T05:40:29.345Z,19.71
2022-07-29T05:42:57.767Z,19.70
2022-07-29T05:45:26.878Z,19.69
2022-07-29T05:47:54.688Z,19.67
2022-07-29T05:50:22.470Z,19.66
2022-07-29T05:52:50.313Z,19.62
2022-07-29T05:55:18.148Z,19.64
2022-07-29T05:57:46.641Z,19.64
2022-07-29T06:00:15.148Z,19.64
2022-07-29T06:02:44.293Z,19.62
2022-07-29T06:05:16.513Z,19.61
2022-07-29T06:07:50.774Z,19.43
2022-07-29T06:10:20.012Z,19.56
2022-07-29T06:12:51.715Z,19.56
2022-07-29T06:15:22.820Z,19.54
2022-07-29T06:18:00.050Z,19.53
2022-07-29T06:20:30.864Z,19.52
2022-07-29T06:22:59.169Z,19.52
2022-07-29T06:25:27.390Z,19.52
2022-07-29T06:27:55.203Z,19.51
2022-07-29T06:30:23.044Z,19.53
2022-07-29T06:32:52.254Z,19.52
2022-07-29T06:35:39.278Z,19.52
2022-07-29T06:38:13.812Z,19.52
2022-07-29T06:41:05.095Z,19.50
2022-07-29T06:43:35.029Z,19.49
2022-07-29T06:46:04.714Z,19.48
2022-07-29T06:48:34.857Z,19.48
2022-07-29T06:51:02.799Z,19.48
2022-07-29T06:53:31.600Z,19.48
2022-07-29T06:56:00.220Z,19.43
2022-07-29T06:58:28.613Z,19.47
2022-07-29T07:00:56.896Z,19.47
2022-07-29T07:03:25.070Z,19.47
2022-07-29T07:05:55.368Z,19.47
2022-07-29T07:08:24.624Z,19.46
2022-07-29T07:10:52.464Z,19.45
2022-07-29T07:13:20.779Z,19.45
2022-07-29T07:15:49.471Z,19.46
2022-07-29T07:18:17.912Z,19.45
2022-07-29T07:20:46.131Z,19.43
2022-07-29T07:23:15.409Z,19.46
2022-07-29T07:25:43.358Z,19.46
2022-07-29T07:28:11.482Z,19.47
2022-07-29T07:30:39.334Z,19.48
2022-07-29T07:33:07.146Z,19.49
2022-07-29T07:35:35.344Z,19.48
2022-07-29T07:38:03.351Z,19.52
2022-07-29T07:40:32.518Z,19.53
2022-07-29T07:43:00.359Z,19.55
2022-07-29T07:45:29.212Z,19.55
2022-07-29T07:47:57.079Z,19.55
2022-07-29T07:50:25.103Z,19.53
2022-07-29T07:52:55.955Z,19.32
2022-07-29T07:55:23.848Z,19.54
2022-07-29T07:57:52.979Z,19.53
2022-07-29T08:00:23.754Z,19.54
2022-07-29T08:02:52.324Z,19.56
2022-07-29T08:05:20.472Z,19.55
2022-07-29T08:07:49.030Z,19.42
2022-07-29T08:10:37.321Z,19.58
2022-07-29T08:13:07.393Z,19.59
2022-07-29T08:15:35.340Z,19.46
2022-07-29T08:18:08.356Z,19.61
2022-07-29T08:20:37.550Z,19.54
2022-07-29T08:23:06.955Z,19.63
2022-07-29T08:25:38.534Z,19.63
2022-07-29T08:28:09.118Z,19.65
2022-07-29T08:30:37.326Z,19.52
2022-07-29T08:33:05.403Z,19.51
2022-07-29T08:35:35.515Z,19.55
2022-07-29T08:38:04.508Z,19.67
2022-07-29T08:40:32.933Z,19.59
2022-07-29T08:43:06.418Z,19.69
2022-07-29T08:45:48.184Z,19.70
2022-07-29T08:48:17.684Z,19.59
2022-07-29T08:50:46.752Z,19.73
2022-07-29T08:53:16.809Z,19.73
2022-07-29T08:55:46.128Z,19.76
2022-07-29T08:58:15.855Z,19.76
2022-07-29T09:00:47.559Z,19.77
2022-07-29T09:03:20.445Z,19.77
2022-07-29T09:05:49.233Z,19.78
2022-07-29T09:08:18.432Z,19.79
2022-07-29T09:10:46.798Z,19.79
2022-07-29T09:13:14.695Z,19.81
2022-07-29T09:15:42.566Z,19.82
2022-07-29T09:18:20.473Z,19.84
2022-07-29T09:21:16.694Z,19.86
2022-07-29T09:24:01.800Z,19.76
2022-07-29T09:26:30.660Z,19.91
2022-07-29T09:28:58.922Z,19.92
2022-07-29T09:31:35.516Z,19.79
2022-07-29T09:34:05.831Z,19.97
2022-07-29T09:36:41.478Z,19.98
2022-07-29T09:39:09.480Z,20.02
2022-07-29T09:41:48.903Z,20.04
2022-07-29T09:44:17.357Z,20.06
2022-07-29T09:46:59.762Z,20.10
2022-07-29T09:49:29.066Z,20.12
2022-07-29T09:52:08.278Z,20.15
2022-07-29T09:54:38.759Z,20.18
2022-07-29T09:57:08.273Z,20.20
2022-07-29T09:59:36.163Z,20.23
2022-07-29T10:02:22.748Z,20.26
2022-07-29T10:04:53.310Z,20.30
2022-07-29T10:07:21.150Z,20.33
2022-07-29T10:09:54.436Z,20.37
2022-07-29T10:12:22.261Z,20.29
2022-07-29T10:14:51.181Z,20.41
2022-07-29T10:17:20.300Z,20.42
2022-07-29T10:19:50.570Z,20.46
2022-07-29T10:22:43.597Z,20.50
2022-07-29T10:25:08.618Z,20.52
2022-07-29T10:27:37.016Z,20.57
2022-07-29T10:30:05.939Z,20.62
2022-07-29T10:32:50.137Z,20.67
2022-07-29T10:35:33.224Z,20.70
2022-07-29T10:38:24.671Z,20.76
2022-07-29T10:41:21.960Z,20.80
2022-07-29T10:43:52.202Z,20.84
2022-07-29T10:46:20.479Z,20.91
2022-07-29T10:49:08.393Z,20.93
2022-07-29T10:51:58.554Z,20.97
2022-07-29T10:54:45.861Z,21.05
2022-07-29T10:57:20.739Z,21.10
2022-07-29T10:59:50.379Z,21.13
2022-07-29T11:02:43.858Z,21.19
2022-07-29T11:05:14.215Z,21.22
2022-07-29T11:11:39.555Z,21.26
2022-07-29T11:14:13.415Z,21.29
2022-07-29T11:17:01.233Z,21.32
2022-07-29T11:19:30.508Z,21.35
2022-07-29T11:21:59.396Z,21.36
2022-07-29T11:24:32.434Z,21.38
2022-07-29T11:27:18.059Z,21.42
2022-07-29T11:29:54.758Z,21.46
2022-07-29T11:32:24.994Z,21.50
2022-07-29T11:35:17.817Z,21.55
2022-07-29T11:37:52.645Z,21.61
2022-07-29T11:40:35.166Z,21.65
2022-07-29T11:43:07.180Z,21.71
2022-07-29T11:45:49.164Z,21.61
2022-07-29T11:48:31.491Z,21.80
2022-07-29T11:51:01.110Z,21.85
2022-07-29T11:53:32.647Z,21.87
2022-07-29T11:56:02.821Z,21.88
2022-07-29T11:58:31.804Z,21.91
2022-07-29T12:01:04.073Z,21.88
2022-07-29T12:06:21.303Z,22.05
2022-07-29T12:08:49.179Z,22.05
2022-07-29T12:11:21.461Z,22.05
2022-07-29T12:13:51.953Z,22.05
2022-07-29T12:16:25.903Z,22.10
2022-07-29T12:18:59.621Z,22.16
2022-07-29T12:21:28.866Z,22.19
2022-07-29T12:24:03.424Z,22.26
2022-07-29T12:26:35.734Z,22.16
2022-07-29T12:29:04.461Z,22.36
2022-07-29T12:31:43.922Z,22.40
2022-07-29T12:34:14.015Z,22.42
2022-07-29T12:36:43.068Z,22.45
2022-07-29T12:39:11.556Z,22.42
2022-07-29T12:41:39.895Z,22.47
2022-07-29T12:44:07.663Z,22.54
2022-07-29T12:46:35.638Z,22.55
2022-07-29T12:49:06.273Z,22.61
2022-07-29T12:51:37.409Z,22.63
2022-07-29T12:54:11.394Z,22.72
2022-07-29T12:56:44.390Z,22.74
2022-07-29T12:59:19.829Z,22.78
2022-07-29T13:01:50.149Z,22.77
2022-07-29T13:04:28.734Z,22.77
2022-07-29T13:07:04.393Z,22.89
2022-07-29T13:09:39.615Z,22.91
2022-07-29T13:12:09.414Z,22.92
2022-07-29T13:14:38.952Z,22.90
2022-07-29T13:17:09.148Z,22.93
2022-07-29T13:19:42.773Z,22.97
2022-07-29T13:22:11.144Z,22.97
2022-07-29T13:24:50.440Z,22.98
2022-07-29T13:27:18.567Z,22.99
2022-07-29T13:29:47.444Z,23.02
2022-07-29T13:32:15.765Z,23.07
2022-07-29T13:34:45.197Z,23.12
2022-07-29T13:37:13.088Z,23.12
2022-07-29T13:39:41.630Z,22.97
2022-07-29T13:42:10.988Z,23.09
2022-07-29T13:44:39.151Z,23.08
2022-07-29T13:47:07.315Z,23.08
2022-07-29T13:49:35.119Z,23.09
2022-07-29T13:52:05.735Z,23.12
2022-07-29T13:54:33.540Z,23.15
2022-07-29T13:57:01.327Z,23.15
2022-07-29T13:59:29.065Z,23.15
2022-07-29T14:01:57.398Z,23.15
2022-07-29T14:04:25.576Z,23.16
2022-07-29T14:06:53.942Z,23.03
2022-07-29T14:09:23.122Z,23.15
2022-07-29T14:11:52.319Z,23.14
2022-07-29T14:14:20.564Z,23.18
2022-07-29T14:16:52.064Z,23.20
2022-07-29T14:19:20.342Z,23.22
2022-07-29T14:21:48.134Z,23.22
2022-07-29T14:24:23.064Z,23.21
2022-07-29T14:26:53.064Z,23.20
2022-07-29T14:29:20.867Z,23.19
2022-07-29T14:31:48.749Z,23.18
2022-07-29T14:34:17.002Z,23.23
2022-07-29T14:36:44.807Z,23.23
2022-07-29T14:39:12.948Z,23.22
2022-07-29T14:41:41.035Z,23.18
2022-07-29T14:44:10.482Z,23.22
2022-07-29T14:46:38.260Z,23.12
2022-07-29T14:49:06.987Z,23.25
2022-07-29T14:51:37.625Z,23.27
2022-07-29T14:54:05.652Z,23.28
2022-07-29T14:56:36.942Z,23.29
2022-07-29T14:59:05.479Z,23.30
2022-07-29T15:01:34.862Z,23.29
2022-07-29T15:04:02.658Z,23.27
2022-07-29T15:06:30.435Z,23.29
2022-07-29T15:08:58.168Z,23.30
2022-07-29T15:11:26.470Z,23.29
2022-07-29T15:13:54.288Z,23.27
2022-07-29T15:16:22.999Z,23.28
2022-07-29T15:18:52.531Z,23.28
2022-07-29T15:21:20.342Z,23.26
2022-07-29T15:23:48.071Z,23.25
2022-07-29T15:26:16.403Z,23.28
2022-07-29T15:28:44.196Z,23.29
2022-07-29T15:31:11.998Z,23.32
2022-07-29T15:33:39.853Z,23.32
2022-07-29T15:36:09.305Z,23.33
2022-07-29T15:38:40.489Z,23.35
2022-07-29T15:41:10.086Z,23.36
2022-07-29T15:43:38.302Z,23.34
2022-07-29T15:46:23.874Z,23.34
2022-07-29T15:48:51.697Z,23.35
2022-07-29T15:51:21.271Z,23.30
2022-07-29T15:53:53.707Z,23.33
2022-07-29T15:56:21.697Z,23.33
2022-07-29T15:58:49.539Z,23.34
2022-07-29T16:01:17.384Z,23.35
2022-07-29T16:03:46.383Z,23.35
2022-07-29T16:06:15.426Z,23.34
2022-07-29T16:08:44.797Z,23.36
2022-07-29T16:11:12.588Z,23.36
2022-07-29T16:13:40.515Z,23.36
2022-07-29T16:16:08.995Z,23.36
2022-07-29T16:18:37.094Z,23.36
2022-07-29T16:21:04.976Z,23.36
2022-07-29T16:23:33.323Z,23.36
2022-07-29T16:26:04.144Z,23.36
2022-07-29T16:28:31.897Z,23.37
2022-07-29T16:30:59.721Z,23.36
2022-07-29T16:33:27.539Z,23.37
2022-07-29T16:35:55.583Z,23.35
2022-07-29T16:38:23.489Z,23.34
2022-07-29T16:40:51.484Z,23.33
2022-07-29T16:43:20.628Z,23.32
2022-07-29T16:45:48.587Z,23.30
2022-07-29T16:48:17.307Z,23.19
2022-07-29T16:50:46.066Z,23.29
2022-07-29T16:53:13.931Z,23.16
2022-07-29T16:55:42.021Z,23.29
2022-07-29T16:58:10.526Z,23.29
2022-07-29T17:00:40.292Z,23.27
2022-07-29T17:03:08.293Z,23.28
2022-07-29T17:05:52.610Z,23.27
2022-07-29T17:08:22.316Z,23.28
2022-07-29T17:10:50.189Z,23.29
2022-07-29T17:13:17.955Z,23.27
2022-07-29T17:15:47.119Z,23.27
2022-07-29T17:20:42.704Z,23.23
2022-07-29T17:23:10.693Z,23.25
2022-07-29T17:25:38.463Z,23.25
2022-07-29T17:28:06.308Z,23.24
2022-07-29T17:30:34.103Z,23.24
2022-07-29T17:33:03.244Z,23.23
2022-07-29T17:35:48.824Z,23.23
2022-07-29T17:38:16.640Z,23.22
2022-07-29T17:40:44.467Z,23.22
2022-07-29T17:43:12.187Z,23.21
2022-07-29T17:45:50.318Z,23.20
2022-07-29T17:48:20.075Z,23.20
2022-07-29T17:50:48.073Z,23.08
2022-07-29T17:53:16.859Z,23.20
2022-07-29T17:55:45.893Z,23.19
2022-07-29T17:58:14.038Z,23.19
2022-07-29T18:00:41.986Z,23.18
2022-07-29T18:03:10.495Z,23.17
2022-07-29T18:05:40.140Z,23.16
2022-07-29T18:08:08.143Z,23.15
2022-07-29T18:10:36.060Z,23.14
2022-07-29T18:13:04.113Z,23.14
2022-07-29T18:15:32.067Z,23.11
2022-07-29T18:18:00.009Z,23.11
2022-07-29T18:20:28.162Z,23.09
2022-07-29T18:22:57.493Z,23.07
2022-07-29T18:25:25.759Z,23.05
2022-07-29T18:27:57.268Z,23.02
2022-07-29T18:30:28.225Z,23.01
2022-07-29T18:33:19.589Z,22.87
2022-07-29T18:35:44.247Z,22.96
2022-07-29T18:38:13.368Z,22.96
2022-07-29T18:40:42.344Z,22.92
2022-07-29T18:43:10.415Z,22.93
2022-07-29T18:45:39.671Z,22.92
2022-07-29T18:48:08.457Z,22.90
2022-07-29T18:50:40.887Z,22.89
2022-07-29T18:53:09.510Z,22.88
2022-07-29T18:55:38.866Z,22.86
2022-07-29T18:58:06.788Z,22.85
2022-07-29T19:00:35.359Z,22.84
2022-07-29T19:03:04.304Z,22.82
2022-07-29T19:05:32.654Z,22.82
2022-07-29T19:08:00.521Z,22.80
2022-07-29T19:10:28.343Z,22.79
2022-07-29T19:12:57.935Z,22.78
2022-07-29T19:15:26.227Z,22.76
2022-07-29T19:17:56.641Z,22.74
2022-07-29T19:20:29.067Z,22.70
2022-07-29T19:22:56.889Z,22.71
2022-07-29T19:25:24.951Z,22.65
2022-07-29T19:27:52.789Z,22.66
2022-07-29T19:30:22.189Z,22.63
2022-07-29T19:32:49.956Z,22.62
2022-07-29T19:35:31.007Z,22.60
2022-07-29T19:38:01.122Z,22.59
2022-07-29T19:40:29.938Z,22.59
2022-07-29T19:42:58.147Z,22.57
2022-07-29T19:45:27.587Z,22.55
2022-07-29T19:48:01.107Z,22.53
2022-07-29T19:50:30.007Z,22.52
2022-07-29T19:52:57.965Z,22.45
2022-07-29T19:55:25.796Z,22.49
2022-07-29T19:57:54.016Z,22.48
2022-07-29T20:00:24.601Z,22.39
2022-07-29T20:02:54.059Z,22.46
2022-07-29T20:05:21.921Z,22.46
2022-07-29T20:07:56.294Z,22.45
2022-07-29T20:10:24.251Z,22.45
2022-07-29T20:12:55.076Z,22.43
2022-07-29T20:15:23.350Z,22.40
2022-07-29T20:17:55.294Z,22.42
2022-07-29T20:20:26.937Z,22.40
2022-07-29T20:22:55.042Z,22.38
2022-07-29T20:25:22.962Z,22.36
2022-07-29T20:27:52.386Z,22.24
2022-07-29T20:30:20.887Z,22.32
2022-07-29T20:32:49.141Z,22.27
2022-07-29T20:35:17.452Z,22.32
2022-07-29T20:37:55.715Z,22.29
2022-07-29T20:40:24.871Z,22.29
2022-07-29T20:42:52.654Z,22.27
2022-07-29T20:45:21.002Z,22.25
2022-07-29T20:47:48.767Z,22.19
2022-07-29T20:50:16.979Z,22.22
2022-07-29T20:52:44.843Z,22.20
2022-07-29T20:55:14.026Z,22.19
2022-07-29T20:57:41.787Z,22.17
2022-07-29T21:00:10.423Z,22.15
2022-07-29T21:02:38.379Z,22.14
2022-07-29T21:05:07.244Z,22.11
2022-07-29T21:07:35.235Z,22.10
2022-07-29T21:10:03.083Z,21.99
2022-07-29T21:12:33.780Z,22.03
2022-07-29T21:15:05.689Z,22.06
2022-07-29T21:17:36.009Z,22.04
2022-07-29T21:20:05.453Z,22.02
2022-07-29T21:22:33.304Z,22.00
2022-07-29T21:25:01.712Z,21.99
2022-07-29T21:27:47.220Z,21.94
2022-07-29T21:30:16.540Z,21.96
2022-07-29T21:32:44.360Z,21.94
2022-07-29T21:35:22.318Z,21.93
2022-07-29T21:38:00.502Z,21.92
2022-07-29T21:40:28.489Z,21.90
2022-07-29T21:42:56.252Z,21.88
2022-07-29T21:45:25.498Z,21.87
2022-07-29T21:47:53.230Z,21.85
2022-07-29T21:50:21.407Z,21.84
2022-07-29T21:52:49.215Z,21.82
2022-07-29T21:55:17.986Z,21.82
2022-07-29T21:57:47.137Z,21.78
2022-07-29T22:00:16.042Z,21.79
2022-07-29T22:02:45.626Z,21.79
2022-07-29T22:05:13.945Z,21.64
2022-07-29T22:07:55.834Z,21.77
2022-07-29T22:10:25.721Z,21.76
2022-07-29T22:12:54.421Z,21.73
2022-07-29T22:15:22.806Z,21.67
2022-07-29T22:17:52.187Z,21.70
2022-07-29T22:20:20.532Z,21.68
2022-07-29T22:22:48.339Z,21.67
2022-07-29T22:25:16.386Z,21.65
2022-07-29T22:27:44.641Z,21.53
2022-07-29T22:30:13.328Z,21.55
2022-07-29T22:32:41.973Z,21.63
2022-07-29T22:35:11.847Z,21.61
2022-07-29T22:37:40.261Z,21.60
2022-07-29T22:40:09.198Z,21.61
2022-07-29T22:42:40.908Z,21.47
2022-07-29T22:45:10.412Z,21.58
2022-07-29T22:47:46.361Z,21.57
2022-07-29T22:50:17.785Z,21.57
2022-07-29T22:52:45.941Z,21.54
2022-07-29T22:55:14.037Z,21.54
2022-07-29T22:57:41.920Z,21.52
2022-07-29T23:00:11.074Z,21.51
2022-07-29T23:02:40.189Z,21.45
2022-07-29T23:05:10.303Z,21.47
2022-07-29T23:07:39.606Z,21.46
2022-07-29T23:10:08.020Z,21.44
2022-07-29T23:12:35.909Z,21.44
2022-07-29T23:15:04.550Z,21.40
2022-07-29T23:17:36.324Z,21.41
2022-07-29T23:20:06.670Z,21.40
2022-07-29T23:22:34.676Z,21.40
2022-07-29T23:25:05.008Z,21.39
2022-07-29T23:27:32.889Z,21.37
2022-07-29T23:30:00.715Z,21.35
2022-07-29T23:32:28.533Z,21.33
2022-07-29T23:34:56.291Z,21.29
2022-07-29T23:37:24.206Z,21.30
2022-07-29T23:39:55.094Z,21.27
2022-07-29T23:42:24.267Z,21.20
2022-07-29T23:44:52.016Z,21.24
2022-07-29T23:47:19.883Z,21.23
2022-07-29T23:49:49.871Z,21.21
2022-07-29T23:52:17.763Z,21.20
2022-07-29T23:54:45.528Z,21.15
2022-07-29T23:57:13.308Z,21.17
2022-07-29T23:59:42.444Z,21.17
